| Today | Week | Month | Season | Year | Rain Year | ||
|---|---|---|---|---|---|---|---|
| Outside Temperature | °C |
20,2 13:59:00 16,4 15:40:08 |
20,2 13:59:00 (sobota) 16,4 15:40:08 (sobota) |
20,2 05.09.2026 13:59:00 16,4 05.09.2026 15:40:08 |
20,2 05.09.2026 13:59:00 16,4 05.09.2026 15:40:08 |
22,6 23.08.2026 16:58:00 14,0 23.08.2026 05:52:00 |
22,6 23.08.2026 16:58:00 14,0 23.08.2026 05:52:00 |
| Heat Index | °C |
19,9 14:01:16 16,0 15:40:08 |
19,9 14:01:16 (sobota) 16,0 15:40:08 (sobota) |
19,9 05.09.2026 14:01:16 16,0 05.09.2026 15:40:08 |
19,9 05.09.2026 14:01:16 16,0 05.09.2026 15:40:08 |
22,6 23.08.2026 16:58:00 13,7 23.08.2026 05:52:00 |
22,6 23.08.2026 16:58:00 13,7 23.08.2026 05:52:00 |
| Wind Chill | °C |
20,2 13:59:00 16,4 15:40:08 |
20,2 13:59:00 (sobota) 16,4 15:40:08 (sobota) |
20,2 05.09.2026 13:59:00 16,4 05.09.2026 15:40:08 |
20,2 05.09.2026 13:59:00 16,4 05.09.2026 15:40:08 |
22,6 23.08.2026 16:58:00 14,0 23.08.2026 05:52:00 |
22,6 23.08.2026 16:58:00 14,0 23.08.2026 05:52:00 |
| Dew Point | °C |
12,9 13:19:00 11,4 14:43:15 |
12,9 13:19:00 (sobota) 11,4 14:43:15 (sobota) |
12,9 05.09.2026 13:19:00 11,4 05.09.2026 14:43:15 |
12,9 05.09.2026 13:19:00 11,4 05.09.2026 14:43:15 |
17,8 23.08.2026 22:43:00 11,4 05.09.2026 14:43:15 |
17,8 23.08.2026 22:43:00 11,4 05.09.2026 14:43:15 |
| Outside Humidity | % |
74 15:18:08 59 13:58:42 |
74 15:18:08 (sobota) 59 13:58:42 (sobota) |
74 05.09.2026 15:18:08 59 05.09.2026 13:58:42 |
74 05.09.2026 15:18:08 59 05.09.2026 13:58:42 |
89 23.08.2026 07:46:00 59 05.09.2026 13:58:42 |
89 23.08.2026 07:46:00 59 05.09.2026 13:58:42 |
| Barometer | mbar |
1013,9 15:33:02 1012,3 13:15:00 |
1013,9 15:33:02 (sobota) 1012,3 13:15:00 (sobota) |
1013,9 05.09.2026 15:33:02 1012,3 05.09.2026 13:15:00 |
1013,9 05.09.2026 15:33:02 1012,3 05.09.2026 13:15:00 |
1015,4 22.08.2026 21:31:00 1003,4 23.08.2026 22:25:00 |
1015,4 22.08.2026 21:31:00 1003,4 23.08.2026 22:25:00 |
| Max Wind |
m/s ° |
10,7 280 14:42:50 |
10,7 280 14:42:50 (sobota) |
10,7 280 05.09.2026 14:42:50 |
10,7 280 05.09.2026 14:42:50 |
14,8 292 23.08.2026 22:52:00 |
14,8 292 23.08.2026 22:52:00 |
| Average Wind | m/s | 4,0 | 4,0 | 4,0 | 4,0 | 2,3 | 2,3 |
| RMS Wind | m/s | 4,2 | 4,2 | 4,2 | 4,2 | 2,8 | 2,8 |
|
Vector Average Vector Direction |
m/s ° |
3,8 302 |
3,8 302 |
3,8 302 |
3,8 302 |
1,8 278 |
1,8 278 |
| Rain | mm | 0,0 | 0,0 | 0,0 | 0,0 | 2,2 | 2,2 |
| Rain Rate | mm/h |
0,0 13:14:00 |
0,0 13:14:00 (sobota) |
0,0 05.09.2026 13:14:00 |
0,0 05.09.2026 13:14:00 |
17,8 23.08.2026 22:50:00 |
17,8 23.08.2026 22:50:00 |
| Evapotranspiration | mm | 0,0 | 0,0 | 0,0 | 0,0 | 0,0 | 0,0 |
| Inside Temperature | °C |
27,4 13:23:00 24,2 15:30:02 |
27,4 13:23:00 (sobota) 24,2 15:30:02 (sobota) |
27,4 05.09.2026 13:23:00 24,2 05.09.2026 15:30:02 |
27,4 05.09.2026 13:23:00 24,2 05.09.2026 15:30:02 |
27,4 05.09.2026 13:23:00 23,7 24.08.2026 10:57:00 |
27,4 05.09.2026 13:23:00 23,7 24.08.2026 10:57:00 |
| Inside Humidity | % |
52 13:15:00 44 13:23:00 |
52 13:15:00 (sobota) 44 13:23:00 (sobota) |
52 05.09.2026 13:15:00 44 05.09.2026 13:23:00 |
52 05.09.2026 13:15:00 44 05.09.2026 13:23:00 |
59 24.08.2026 00:08:00 44 05.09.2026 13:23:00 |
59 24.08.2026 00:08:00 44 05.09.2026 13:23:00 |
| Latitude | 52° 04.89' N |
| Longitude | 020° 59.54' E |
| Altitude | 116 meters |
| WeeWX | 5.5.0 |